Time;durP1;ratioP1;P1;durP2;ratioP2;P2;SDS_P1;SDS_P2;PMS_P1;PMS_P2;Temp;Humidity;BMP_temperature;BMP_pressure;BME280_temperature;BME280_humidity;BME280_pressure;Samples;Min_cycle;Max_cycle;Signal;HPM_P1;HPM_P2
2022/08/14 04:22:33;;;;;;;2.75;1.92;;;;;;;15.87;67.96;99586.72;5109276;27;20672;-68
2022/08/14 04:25:00;;;;;;;4.75;1.85;;;;;;;15.80;68.08;99590.53;5109312;28;20061;-67
2022/08/14 04:27:26;;;;;;;4.03;2.15;;;;;;;15.82;68.13;99599.97;5109189;28;20093;-67
2022/08/14 04:29:52;;;;;;;2.63;1.90;;;;;;;15.80;68.20;99602.09;5108941;28;20051;-67
2022/08/14 04:32:21;;;;;;;3.28;1.52;;;;;;;15.76;68.60;99589.31;5109728;28;20028;-66
2022/08/14 04:34:46;;;;;;;1.40;1.30;;;;;;;15.74;68.72;99595.72;5109114;28;20035;-67
2022/08/14 04:45:31;;;;;;;1.42;1.30;;;;;;;16.08;65.80;99600.72;5108878;28;20054;-67
2022/08/14 04:48:12;;;;;;;1.55;1.10;;;;;;;16.16;65.15;99605.78;5108979;28;20130;-66
2022/08/14 04:50:51;;;;;;;1.33;1.20;;;;;;;16.22;64.42;99605.72;5108591;28;20035;-67
2022/08/14 04:53:22;;;;;;;1.67;1.35;;;;;;;16.34;63.69;99602.28;5108802;28;20032;-67
2022/08/14 04:55:49;;;;;;;1.10;1.00;;;;;;;16.40;63.41;99604.88;5108692;28;20488;-66
2022/08/14 04:58:25;;;;;;;1.85;1.30;;;;;;;16.48;64.04;99604.56;5108647;28;20051;-66
2022/08/14 05:00:52;;;;;;;2.17;1.58;;;;;;;16.49;65.68;99608.88;5108288;28;20118;-67
2022/08/14 05:03:19;;;;;;;2.38;1.48;;;;;;;16.48;66.18;99615.31;5108620;28;20039;-66
2022/08/14 05:05:49;;;;;;;;;;;;;;;16.52;65.93;99605.75;5108999;28;20082;-67
2022/08/14 05:08:15;;;;;;;2.35;1.95;;;;;;;16.58;65.90;99603.22;5108675;28;19916;-66
2022/08/14 05:10:44;;;;;;;1.80;1.42;;;;;;;16.59;66.32;99602.16;5108167;28;20042;-67
2022/08/14 05:13:12;;;;;;;1.45;1.30;;;;;;;16.57;66.46;99604.28;5108616;28;20067;-65
2022/08/14 05:15:39;;;;;;;;;;;;;;;16.60;66.78;99601.09;5107386;27;20040;-66
2022/08/14 05:18:13;;;;;;;2.53;1.60;;;;;;;16.60;67.24;99601.09;5108269;28;19920;-65
2022/08/14 05:20:44;;;;;;;2.50;2.00;;;;;;;16.63;66.79;99601.50;5107740;28;20051;-66
2022/08/14 05:23:21;;;;;;;3.47;1.75;;;;;;;16.67;65.74;99596.47;5108214;28;20074;-67
2022/08/14 05:25:48;;;;;;;1.63;1.48;;;;;;;16.71;66.40;99600.38;5108190;28;20539;-65
2022/08/14 05:28:17;;;;;;;1.42;1.33;;;;;;;16.77;66.58;99597.59;5108058;28;20034;-66
2022/08/14 05:30:55;;;;;;;2.00;1.75;;;;;;;16.83;66.21;99595.03;5106439;28;20036;-67
2022/08/14 05:33:23;;;;;;;;;;;;;;;16.91;64.45;99589.31;5098288;28;20101;-66
2022/08/14 05:35:50;;;;;;;1.67;1.42;;;;;;;16.95;63.05;99585.94;5094357;28;19922;-67
2022/08/14 05:38:18;;;;;;;1.45;1.33;;;;;;;17.05;62.62;99583.50;5094452;28;20036;-66
2022/08/14 05:40:45;;;;;;;1.63;1.30;;;;;;;17.13;61.99;99586.91;5093956;28;20088;-68
2022/08/14 05:43:12;;;;;;;1.38;1.15;;;;;;;17.23;61.45;99585.28;5094323;28;20130;-67
2022/08/14 05:45:38;;;;;;;1.63;1.40;;;;;;;17.32;61.10;99593.81;5094212;28;20127;-67
2022/08/14 05:48:05;;;;;;;2.03;1.58;;;;;;;17.43;60.74;99595.72;5094235;28;20446;-66
2022/08/14 05:50:31;;;;;;;2.17;1.27;;;;;;;17.57;59.62;99596.31;5093877;28;20067;-67
2022/08/14 05:52:57;;;;;;;1.52;1.23;;;;;;;17.67;59.24;99587.63;5094102;28;20484;-66
2022/08/14 05:55:23;;;;;;;1.40;1.30;;;;;;;17.78;59.11;99586.81;5093971;28;20118;-67
2022/08/14 05:58:01;;;;;;;1.35;1.17;;;;;;;17.86;58.41;99589.16;5094030;28;20046;-67
2022/08/14 06:00:27;;;;;;;;;;;;;;;17.99;57.94;99582.69;5094035;28;20400;-66
2022/08/14 06:02:55;;;;;;;2.20;1.67;;;;;;;18.06;58.00;99581.53;5093837;28;19919;-65
2022/08/14 06:05:21;;;;;;;1.83;1.40;;;;;;;18.20;57.26;99568.59;5092564;28;20046;-67
2022/08/14 06:07:47;;;;;;;1.83;1.60;;;;;;;18.34;56.42;99564.56;5093759;28;20065;-66
2022/08/14 06:10:13;;;;;;;1.85;1.50;;;;;;;18.49;56.12;99560.50;5093429;28;20101;-67
2022/08/14 06:12:38;;;;;;;1.70;1.60;;;;;;;18.57;56.30;99552.00;5093795;28;20055;-68
2022/08/14 06:15:05;;;;;;;1.88;1.50;;;;;;;18.68;55.66;99549.28;5093594;28;20040;-67
2022/08/14 06:17:31;;;;;;;2.15;1.58;;;;;;;18.75;55.74;99548.31;5093592;28;20105;-66
2022/08/14 06:19:56;;;;;;;1.65;1.55;;;;;;;18.88;55.11;99542.63;5093294;28;20544;-67
2022/08/14 06:22:22;;;;;;;2.03;1.55;;;;;;;18.95;54.75;99541.38;5093317;28;20127;-67
2022/08/14 06:24:47;;;;;;;1.38;1.27;;;;;;;19.07;54.45;99546.72;5093441;28;20062;-66
2022/08/14 06:27:13;;;;;;;1.70;1.30;;;;;;;19.21;53.82;99548.00;5093397;28;20051;-65
2022/08/14 06:29:38;;;;;;;2.00;1.58;;;;;;;19.27;53.45;99548.91;5092686;28;20032;-49
2022/08/14 06:32:04;;;;;;;1.30;1.10;;;;;;;19.36;53.69;99542.00;5093300;28;20315;-51
2022/08/14 06:34:30;;;;;;;1.58;1.17;;;;;;;19.45;53.32;99537.84;5093368;28;20566;-53
2022/08/14 06:36:55;;;;;;;1.67;1.50;;;;;;;19.53;52.36;99528.50;5091866;28;20123;-52
2022/08/14 06:39:24;;;;;;;1.50;1.33;;;;;;;19.63;52.82;99527.88;5092830;28;20051;-48
2022/08/14 06:41:49;;;;;;;1.80;1.45;;;;;;;19.73;52.04;99523.38;5092980;28;20067;-51
2022/08/14 06:44:15;;;;;;;2.03;1.20;;;;;;;19.86;51.76;99524.09;5092064;28;20075;-48
2022/08/14 06:46:41;;;;;;;1.58;1.48;;;;;;;19.93;51.21;99522.81;5092769;28;20040;-47
2022/08/14 06:49:06;;;;;;;1.98;1.25;;;;;;;20.00;51.10;99522.63;5091305;28;20040;-55
2022/08/14 06:51:34;;;;;;;1.70;1.58;;;;;;;20.06;51.48;99513.53;5095450;28;20035;-57
2022/08/14 06:54:00;;;;;;;1.42;1.33;;;;;;;20.19;51.35;99523.94;5085217;28;20407;-57
2022/08/14 06:56:25;;;;;;;1.50;1.40;;;;;;;20.29;50.98;99515.13;5087203;28;20040;-58
2022/08/14 06:58:51;;;;;;;1.45;1.25;;;;;;;20.39;50.72;99503.59;5093127;28;20059;-57
2022/08/14 07:06:44;;;;;;;1.35;1.17;;;;;;;20.65;51.26;99507.38;5092402;28;20501;-55
2022/08/14 07:09:10;;;;;;;1.73;1.50;;;;;;;20.78;51.39;99517.78;5091444;28;20066;-53
2022/08/14 07:11:36;;;;;;;3.65;2.05;;;;;;;20.86;51.08;99515.44;5092246;28;20044;-56
2022/08/14 07:14:02;;;;;;;2.45;2.03;;;;;;;20.90;50.80;99518.44;5091911;28;20412;-54
2022/08/14 07:16:27;;;;;;;9.95;6.07;;;;;;;21.01;51.77;99527.47;5092167;28;20040;-53
2022/08/14 07:18:53;;;;;;;1.80;1.63;;;;;;;21.06;51.22;99535.59;5091666;28;20044;-55
2022/08/14 07:21:18;;;;;;;1.88;1.55;;;;;;;21.12;51.30;99535.38;5091598;28;20404;-57
2022/08/14 07:23:46;;;;;;;1.88;1.52;;;;;;;21.22;50.70;99523.00;5084092;28;20039;-54
2022/08/14 07:26:12;;;;;;;1.98;1.70;;;;;;;21.31;50.34;99519.56;5071658;28;20051;-55
2022/08/14 07:28:39;;;;;;;1.48;1.38;;;;;;;21.40;50.76;99519.91;5071701;28;20040;-48
2022/08/14 07:31:09;;;;;;;1.80;1.40;;;;;;;21.53;50.74;99526.75;5070939;28;20060;-48
2022/08/14 07:33:42;;;;;;;1.60;1.50;;;;;;;21.63;50.48;99521.38;5071695;28;20516;-57
2022/08/14 07:36:09;;;;;;;1.65;1.42;;;;;;;21.80;49.87;99519.31;5071605;28;20032;-51
2022/08/14 07:38:35;;;;;;;;;;;;;;;21.93;49.18;99509.88;5070394;28;20123;-52
2022/08/14 07:41:01;;;;;;;1.42;1.25;;;;;;;22.04;49.18;99498.00;5070842;28;20027;-53
2022/08/14 07:43:26;;;;;;;1.85;1.50;;;;;;;22.15;49.35;99499.66;5071823;28;20086;-53
2022/08/14 07:45:52;;;;;;;1.73;1.42;;;;;;;22.32;48.92;99495.91;5072210;28;20112;-52
2022/08/14 07:48:17;;;;;;;2.60;1.30;;;;;;;22.40;48.68;99495.38;5071870;28;20097;-62
2022/08/14 07:50:44;;;;;;;1.50;1.40;;;;;;;22.56;48.70;99498.91;5071366;28;20059;-61
2022/08/14 07:53:13;;;;;;;1.73;1.42;;;;;;;22.68;47.80;99500.28;5071630;28;20040;-63
2022/08/14 07:55:40;;;;;;;1.85;1.60;;;;;;;22.76;47.12;99498.97;5071341;28;20511;-62
2022/08/14 07:58:05;;;;;;;1.92;1.33;;;;;;;22.91;47.46;99501.69;5071523;28;20128;-62
2022/08/14 08:00:32;;;;;;;1.60;1.50;;;;;;;23.02;46.87;99503.31;5071216;28;20135;-62
2022/08/14 08:02:58;;;;;;;1.58;1.48;;;;;;;23.15;46.92;99506.56;5071518;28;20489;-61
2022/08/14 08:05:24;;;;;;;1.40;1.27;;;;;;;23.36;45.57;99502.72;5071422;28;20033;-58
2022/08/14 08:07:51;;;;;;;2.13;1.40;;;;;;;23.57;45.36;99503.47;5071606;28;20400;-57
2022/08/14 08:10:31;;;;;;;1.67;1.48;;;;;;;23.62;44.91;99505.41;5071255;28;20055;-50
2022/08/14 08:13:20;;;;;;;2.63;1.83;;;;;;;23.76;44.89;99511.88;5071450;28;20111;-49
2022/08/14 08:15:52;;;;;;;1.52;1.42;;;;;;;23.89;44.38;99505.03;5071615;28;20167;-59
2022/08/14 08:18:19;;;;;;;2.25;1.58;;;;;;;23.99;44.37;99486.75;5071302;28;20082;-55
2022/08/14 08:20:47;;;;;;;3.45;1.70;;;;;;;24.21;43.81;99494.53;5070834;28;20397;-58
2022/08/14 08:23:15;;;;;;;1.58;1.40;;;;;;;24.26;43.33;99499.13;5071280;28;20123;-57
2022/08/14 08:25:43;;;;;;;1.67;1.58;;;;;;;24.39;43.16;99508.59;5071376;28;20028;-57
2022/08/14 08:28:14;;;;;;;1.40;1.30;;;;;;;24.55;42.35;99513.66;5071532;28;20036;-58
2022/08/14 08:30:51;;;;;;;1.63;1.15;;;;;;;24.56;42.49;99498.94;5070945;28;20025;-56
2022/08/14 08:33:20;;;;;;;1.80;1.50;;;;;;;24.77;41.73;99485.97;5071029;28;20432;-59
2022/08/14 08:35:47;;;;;;;1.88;1.50;;;;;;;24.93;41.26;99481.25;5070896;28;20756;-53
2022/08/14 08:38:16;;;;;;;1.80;1.40;;;;;;;25.03;40.88;99478.41;5070967;28;20045;-56
2022/08/14 08:40:47;;;;;;;1.48;1.38;;;;;;;25.22;40.27;99477.72;5070651;28;20068;-55
2022/08/14 08:43:19;;;;;;;1.80;1.38;;;;;;;25.33;40.48;99480.06;5071002;28;20036;-59
2022/08/14 08:45:53;;;;;;;2.35;1.40;;;;;;;25.48;39.72;99459.97;5070958;28;20440;-56
2022/08/14 08:48:18;;;;;;;1.63;1.50;;;;;;;25.73;38.98;99463.53;5071388;28;20116;-57
2022/08/14 08:50:44;;;;;;;2.17;1.48;;;;;;;25.83;38.42;99455.25;5070590;28;20071;-57
2022/08/14 08:53:09;;;;;;;1.70;1.35;;;;;;;26.07;37.25;99445.06;5070816;28;20037;-59
2022/08/14 08:55:37;;;;;;;1.23;1.00;;;;;;;26.30;36.32;99450.75;5070793;28;20029;-60
2022/08/14 08:58:05;;;;;;;1.30;1.00;;;;;;;26.49;35.31;99448.84;5070847;28;20032;-59
2022/08/14 09:00:33;;;;;;;1.33;1.08;;;;;;;26.75;34.90;99447.31;5070521;28;20550;-56
2022/08/14 09:03:06;;;;;;;1.30;0.90;;;;;;;26.88;33.92;99453.94;5070685;28;20036;-55
2022/08/14 09:05:33;;;;;;;1.10;1.00;;;;;;;27.03;33.13;99455.56;5070982;28;20040;-59
2022/08/14 09:08:08;;;;;;;;;;;;;;;27.31;32.68;99449.03;5072660;28;20020;-60
2022/08/14 09:10:34;;;;;;;1.10;1.00;;;;;;;27.53;33.14;99456.56;5074053;28;19912;-59
2022/08/14 09:13:01;;;;;;;1.20;1.00;;;;;;;27.73;32.02;99457.28;5074351;28;20405;-57
2022/08/14 09:15:27;;;;;;;1.60;1.00;;;;;;;27.79;32.36;99462.34;5074147;28;20435;-59
2022/08/14 09:17:53;;;;;;;0.95;0.95;;;;;;;27.95;32.44;99462.00;5074269;28;20046;-58
2022/08/14 09:20:18;;;;;;;1.45;0.98;;;;;;;28.13;31.28;99459.13;5073855;28;20211;-60
2022/08/14 09:22:44;;;;;;;1.65;1.20;;;;;;;28.35;31.02;99444.69;5074274;28;20048;-59
2022/08/14 09:25:10;;;;;;;1.05;0.95;;;;;;;28.61;31.17;99463.25;5074064;28;20039;-59
2022/08/14 09:27:37;;;;;;;1.13;1.03;;;;;;;28.84;30.26;99451.16;5074201;28;20044;-60
2022/08/14 09:30:06;;;;;;;1.77;1.20;;;;;;;28.83;30.20;99452.28;5073775;28;20074;-58
2022/08/14 09:32:42;;;;;;;1.13;1.02;;;;;;;28.93;30.65;99454.78;5074003;28;20122;-57
2022/08/14 09:35:27;;;;;;;1.17;1.08;;;;;;;29.17;29.38;99443.44;5074201;28;20044;-60
2022/08/14 09:38:15;;;;;;;1.13;1.02;;;;;;;29.43;29.17;99431.78;5074103;28;20111;-60
2022/08/14 09:41:10;;;;;;;0.90;0.90;;;;;;;29.64;28.98;99416.38;5054068;28;20148;-58
2022/08/14 09:43:38;;;;;;;1.60;1.05;;;;;;;29.79;28.64;99404.13;5057673;28;20131;-60
2022/08/14 09:46:06;;;;;;;1.30;0.90;;;;;;;29.98;28.14;99403.81;5073796;28;20047;-60
2022/08/14 09:48:33;;;;;;;1.15;1.00;;;;;;;30.33;27.78;99398.38;5073850;28;20028;-60
2022/08/14 09:51:00;;;;;;;1.10;1.00;;;;;;;30.58;27.90;99400.22;5073582;28;20067;-59
2022/08/14 09:53:42;;;;;;;1.05;1.00;;;;;;;30.67;26.79;99395.56;5073939;28;20062;-64
2022/08/14 09:56:09;;;;;;;1.10;1.00;;;;;;;30.70;27.51;99402.34;5074139;28;20032;-60
2022/08/14 09:58:38;;;;;;;;;;;;;;;31.03;26.67;99397.06;5074140;28;20036;-60
2022/08/14 10:01:11;;;;;;;1.27;1.10;;;;;;;31.33;26.48;99395.19;5073485;28;19959;-55
2022/08/14 10:03:47;;;;;;;1.20;1.10;;;;;;;31.44;26.67;99387.38;5073878;28;20123;-54
2022/08/14 10:06:16;;;;;;;1.50;1.20;;;;;;;31.58;26.72;99387.94;5073733;28;20507;-55
2022/08/14 10:08:49;;;;;;;1.20;1.10;;;;;;;32.28;24.70;99377.22;5073529;28;20032;-56
2022/08/14 10:11:21;;;;;;;1.05;1.00;;;;;;;32.42;24.68;99371.44;5073255;28;20048;-51
2022/08/14 10:13:53;;;;;;;1.20;1.10;;;;;;;32.38;24.86;99369.34;5073413;28;20060;-56
2022/08/14 10:16:25;;;;;;;1.23;1.13;;;;;;;32.72;24.44;99363.78;5073117;28;20048;-53
2022/08/14 10:19:03;;;;;;;1.55;1.25;;;;;;;33.14;24.40;99381.00;5073289;28;20089;-56
2022/08/14 10:21:29;;;;;;;1.30;1.20;;;;;;;33.36;24.30;99369.50;5073572;28;20032;-52
2022/08/14 10:23:54;;;;;;;1.50;1.40;;;;;;;33.57;23.56;99358.34;5073588;28;20101;-56
2022/08/14 10:26:20;;;;;;;2.03;1.10;;;;;;;33.75;23.25;99356.13;5073366;28;20040;-57
2022/08/14 10:28:50;;;;;;;1.00;0.90;;;;;;;34.18;23.09;99349.91;5073183;28;20512;-55
2022/08/14 10:31:28;;;;;;;1.20;1.02;;;;;;;34.06;23.44;99338.91;5073309;28;20127;-52
2022/08/14 10:33:59;;;;;;;1.20;1.10;;;;;;;34.61;23.66;99331.72;5073273;28;20119;-58
2022/08/14 10:36:47;;;;;;;1.85;1.40;;;;;;;34.62;22.46;99327.78;5073136;28;20063;-58
2022/08/14 10:39:20;;;;;;;1.30;1.13;;;;;;;35.15;22.37;99336.66;5072763;28;20040;-56
2022/08/14 10:41:47;;;;;;;1.40;1.30;;;;;;;34.67;22.07;99319.22;5072925;28;20101;-57
2022/08/14 10:44:21;;;;;;;1.40;1.30;;;;;;;34.80;21.73;99317.19;5073140;28;20431;-55
2022/08/14 10:46:57;;;;;;;1.33;1.23;;;;;;;35.54;21.23;99317.41;5072751;28;20051;-58
2022/08/14 10:49:25;;;;;;;1.20;1.10;;;;;;;35.61;21.38;99312.81;5072691;28;20405;-58
2022/08/14 10:52:05;;;;;;;1.23;1.10;;;;;;;35.17;20.86;99303.88;5072708;28;20175;-56
2022/08/14 10:54:36;;;;;;;1.23;1.13;;;;;;;35.74;21.15;99315.44;5072766;28;20151;-58
2022/08/14 10:57:19;;;;;;;1.38;1.27;;;;;;;35.48;21.25;99316.06;5072663;28;20036;-55
2022/08/14 10:59:55;;;;;;;1.60;1.30;;;;;;;35.12;21.70;99308.88;5072307;28;20032;-54
2022/08/14 11:02:28;;;;;;;1.30;1.20;;;;;;;35.58;22.25;99305.22;5072836;28;20416;-56
2022/08/14 11:05:03;;;;;;;1.38;1.27;;;;;;;35.85;20.21;99311.69;5072539;28;20032;-56
2022/08/14 11:07:30;;;;;;;1.90;1.40;;;;;;;36.41;19.88;99296.59;5072398;28;20408;-59
2022/08/14 11:09:57;;;;;;;1.40;1.17;;;;;;;35.94;19.84;99300.44;5070776;28;20400;-54
2022/08/14 11:12:25;;;;;;;1.17;1.08;;;;;;;36.36;19.57;99297.66;5072334;28;20043;-58
2022/08/14 11:14:58;;;;;;;2.13;1.30;;;;;;;36.88;19.45;99301.78;5072285;28;20040;-56
2022/08/14 11:17:28;;;;;;;1.40;1.30;;;;;;;37.16;18.72;99309.72;5072282;28;20053;-57
2022/08/14 11:19:57;;;;;;;1.83;1.23;;;;;;;37.30;18.56;99313.88;5072406;28;20044;-55
2022/08/14 11:22:28;;;;;;;1.33;1.20;;;;;;;37.46;17.19;99318.13;5072231;28;20040;-58
2022/08/14 11:24:57;;;;;;;0.80;0.80;;;;;;;36.81;16.46;99317.47;5072231;28;20048;-58
2022/08/14 11:27:25;;;;;;;1.05;0.90;;;;;;;36.55;16.63;99321.00;5071945;28;20052;-55
2022/08/14 11:29:52;;;;;;;1.45;1.00;;;;;;;36.11;16.96;99313.81;5071390;28;20517;-56
2022/08/14 11:32:18;;;;;;;0.90;0.90;;;;;;;36.28;16.88;99314.56;5072054;28;20036;-57
2022/08/14 11:34:45;;;;;;;0.80;0.80;;;;;;;36.77;17.01;99297.19;5072044;28;20032;-56
2022/08/14 11:37:11;;;;;;;1.55;1.15;;;;;;;36.76;17.94;99298.38;5071755;28;20116;-55
2022/08/14 11:39:37;;;;;;;1.30;1.20;;;;;;;37.16;17.99;99292.28;5070225;28;20093;-55
2022/08/14 11:42:18;;;;;;;1.25;1.13;;;;;;;38.07;17.04;99291.09;5071791;28;20040;-53
2022/08/14 11:44:48;;;;;;;1.15;1.00;;;;;;;37.96;16.46;99284.66;5070610;28;20040;-54
2022/08/14 11:47:18;;;;;;;1.33;1.00;;;;;;;38.16;16.55;99291.63;5071778;28;20025;-58
2022/08/14 11:49:48;;;;;;;1.85;1.17;;;;;;;38.25;15.02;99272.66;5071403;28;20040;-53
2022/08/14 11:52:15;;;;;;;1.17;0.90;;;;;;;38.34;15.64;99272.34;5071476;28;20032;-55
2022/08/14 11:54:41;;;;;;;1.15;0.95;;;;;;;38.61;15.54;99272.22;5071686;28;20052;-55
2022/08/14 11:57:15;;;;;;;;;;;;;;;38.65;14.98;99278.56;5071991;28;20082;-60
2022/08/14 11:59:41;;;;;;;1.00;0.90;;;;;;;38.57;14.99;99266.59;5071334;28;19920;-60
2022/08/14 12:02:08;;;;;;;1.10;1.00;;;;;;;38.63;15.60;99262.28;5071489;28;20039;-60
2022/08/14 12:04:34;;;;;;;1.17;1.00;;;;;;;38.78;15.03;99266.00;5071632;28;20533;-60
2022/08/14 12:07:00;;;;;;;1.37;1.10;;;;;;;38.94;15.77;99260.94;5071353;28;20119;-60
2022/08/14 12:09:32;;;;;;;1.10;1.00;;;;;;;38.51;15.40;99257.00;5071232;28;20032;-60
2022/08/14 12:11:58;;;;;;;0.85;0.85;;;;;;;37.39;16.15;99248.63;5074962;28;20541;-60
2022/08/14 12:14:24;;;;;;;1.45;0.95;;;;;;;37.92;16.30;99248.47;5075293;28;20044;-59
2022/08/14 12:17:01;;;;;;;1.05;0.95;;;;;;;38.35;16.05;99256.47;5071336;28;20140;-60
2022/08/14 12:19:26;;;;;;;1.08;0.98;;;;;;;38.47;15.35;99253.38;5079734;28;20040;-60
2022/08/14 12:21:52;;;;;;;1.07;0.90;;;;;;;38.42;15.67;99243.44;5091447;28;20028;-56
2022/08/14 12:24:25;;;;;;;1.77;1.00;;;;;;;38.14;15.88;99237.56;5091470;28;20304;-53
2022/08/14 12:26:54;;;;;;;1.10;0.98;;;;;;;38.47;15.88;99239.47;5091290;28;20107;-55
2022/08/14 12:29:20;;;;;;;1.00;1.00;;;;;;;37.69;15.63;99229.16;5091169;28;20426;-55
2022/08/14 12:31:57;;;;;;;1.10;1.00;;;;;;;38.32;16.39;99219.09;5091349;28;20052;-50
2022/08/14 12:34:30;;;;;;;1.15;1.05;;;;;;;38.51;15.36;99227.22;5091348;28;20048;-53
2022/08/14 12:37:06;;;;;;;1.00;0.90;;;;;;;39.08;15.29;99219.28;5091269;28;20036;-56
2022/08/14 12:39:32;;;;;;;;;;;;;;;38.48;15.33;99214.09;5072620;28;20036;-56
2022/08/14 12:42:08;;;;;;;1.40;1.00;;;;;;;38.77;15.69;99203.19;5071282;28;19912;-55
2022/08/14 12:44:42;;;;;;;;;;;;;;;38.65;15.72;99198.69;5075516;28;20489;-60
2022/08/14 12:47:13;;;;;;;1.17;1.08;;;;;;;38.79;15.04;99204.38;5075145;28;19981;-60
2022/08/14 12:49:51;;;;;;;1.17;1.00;;;;;;;37.91;16.08;99188.53;5074674;28;20123;-60
2022/08/14 12:52:29;;;;;;;1.10;1.00;;;;;;;38.16;15.80;99187.97;5075142;28;20385;-60
2022/08/14 12:55:04;;;;;;;1.00;1.00;;;;;;;38.43;15.97;99189.41;5074981;28;20052;-61
2022/08/14 12:57:39;;;;;;;1.10;0.98;;;;;;;38.77;15.66;99180.94;5073521;28;20396;-60
2022/08/14 13:00:17;;;;;;;1.10;1.00;;;;;;;38.47;15.45;99176.34;5074663;28;20044;-58
2022/08/14 13:02:45;;;;;;;1.00;0.93;;;;;;;38.71;16.50;99183.28;5075023;28;20051;-58
2022/08/14 13:05:13;;;;;;;2.33;1.15;;;;;;;37.77;15.64;99168.91;5074648;28;20485;-55
2022/08/14 13:07:40;;;;;;;1.02;0.93;;;;;;;38.14;16.46;99170.84;5074738;28;20131;-56
2022/08/14 13:10:12;;;;;;;1.42;1.10;;;;;;;38.19;15.77;99162.97;5074273;28;20041;-59
2022/08/14 13:12:39;;;;;;;0.90;0.90;;;;;;;38.27;15.48;99158.28;5074526;28;20496;-56
2022/08/14 13:15:07;;;;;;;1.20;1.10;;;;;;;38.63;15.98;99156.56;5074532;28;20036;-55
2022/08/14 13:17:39;;;;;;;1.17;1.05;;;;;;;39.34;15.26;99161.75;5074411;28;20051;-55
2022/08/14 13:20:06;;;;;;;1.10;1.00;;;;;;;38.50;15.57;99158.88;5074103;28;20045;-56
2022/08/14 13:22:33;;;;;;;1.10;1.00;;;;;;;39.60;14.64;99152.31;5073128;28;20103;-61
2022/08/14 13:25:01;;;;;;;1.25;1.10;;;;;;;39.47;15.10;99154.63;5074458;28;20060;-61
2022/08/14 13:27:28;;;;;;;1.20;1.10;;;;;;;37.80;16.43;99140.38;5074196;28;20064;-61
2022/08/14 13:29:56;;;;;;;1.05;1.00;;;;;;;38.60;16.11;99143.44;5074093;28;20090;-61
2022/08/14 13:32:24;;;;;;;0.95;0.85;;;;;;;39.58;15.16;99141.53;5074316;28;20064;-60
2022/08/14 13:34:50;;;;;;;1.10;1.00;;;;;;;39.59;15.06;99137.59;5074150;28;20503;-60
2022/08/14 13:37:17;;;;;;;1.17;1.00;;;;;;;39.57;14.71;99134.34;5074063;28;20048;-61
2022/08/14 13:39:51;;;;;;;1.30;1.20;;;;;;;38.33;15.82;99128.94;5073799;28;20071;-60
2022/08/14 13:42:20;;;;;;;1.23;1.13;;;;;;;38.25;15.92;99130.88;5074241;28;20414;-60
2022/08/14 13:44:52;;;;;;;2.13;1.10;;;;;;;38.34;16.22;99133.31;5073978;28;20068;-59
2022/08/14 13:47:29;;;;;;;1.40;1.30;;;;;;;38.36;16.77;99130.97;5074001;28;20046;-60
2022/08/14 13:50:01;;;;;;;1.25;1.10;;;;;;;37.84;16.45;99127.34;5073792;28;20086;-60
2022/08/14 13:52:32;;;;;;;1.20;1.10;;;;;;;36.99;16.97;99118.81;5073797;28;20037;-61
2022/08/14 13:55:00;;;;;;;1.25;1.15;;;;;;;36.57;16.99;99110.69;5072142;28;20040;-60
2022/08/14 13:57:27;;;;;;;1.10;1.00;;;;;;;36.57;17.54;99114.25;5073679;28;20071;-59
2022/08/14 13:59:54;;;;;;;1.25;1.15;;;;;;;35.54;17.23;99105.00;5073448;28;20103;-61
2022/08/14 14:02:21;;;;;;;1.20;1.08;;;;;;;35.27;18.06;99103.25;5073748;28;20067;-60
2022/08/14 14:04:47;;;;;;;1.20;1.10;;;;;;;35.15;17.89;99095.09;5073657;28;20048;-60
2022/08/14 14:07:20;;;;;;;;;;;;;;;35.08;18.32;99093.00;5074111;28;20032;-60
2022/08/14 14:09:47;;;;;;;1.30;1.20;;;;;;;35.01;19.02;99096.41;5073294;28;19978;-60
2022/08/14 14:12:15;;;;;;;1.20;1.10;;;;;;;35.13;18.94;99091.91;5073830;28;20064;-60
2022/08/14 14:14:42;;;;;;;1.30;1.20;;;;;;;35.05;19.38;99093.72;5073616;28;20043;-59
2022/08/14 14:17:13;;;;;;;1.45;1.13;;;;;;;35.18;19.56;99086.09;5073376;28;20089;-60
2022/08/14 14:19:45;;;;;;;1.42;1.30;;;;;;;34.87;18.68;99084.22;5073074;28;20041;-59
2022/08/14 14:22:14;;;;;;;1.33;1.05;;;;;;;34.90;19.35;99083.53;5073319;28;20114;-59
2022/08/14 14:24:41;;;;;;;0.98;0.88;;;;;;;34.90;19.12;99084.31;5073215;28;20123;-60
2022/08/14 14:27:07;;;;;;;1.13;0.98;;;;;;;34.53;18.94;99083.91;5073155;28;20036;-59
2022/08/14 14:29:35;;;;;;;2.05;1.42;;;;;;;34.79;19.63;99077.75;5072917;28;20041;-60
2022/08/14 14:32:01;;;;;;;1.75;1.10;;;;;;;34.70;19.43;99080.75;5073000;28;20135;-60
2022/08/14 14:34:29;;;;;;;;;;;;;;;34.68;20.07;99083.03;5073418;28;20066;-60
2022/08/14 14:36:56;;;;;;;2.75;1.65;;;;;;;34.72;20.18;99088.66;5073014;28;20001;-59
2022/08/14 14:39:27;;;;;;;2.67;1.85;;;;;;;34.58;19.73;99094.69;5072567;28;20074;-60
2022/08/14 14:41:56;;;;;;;1.40;1.23;;;;;;;34.39;19.53;99095.41;5072855;28;20029;-59
2022/08/14 14:44:25;;;;;;;1.80;1.20;;;;;;;34.30;19.78;99094.81;5072753;28;20048;-60
2022/08/14 14:46:51;;;;;;;1.90;1.55;;;;;;;34.21;20.04;99091.44;5072697;28;20087;-59
2022/08/14 14:49:19;;;;;;;1.80;1.40;;;;;;;34.32;19.93;99091.69;5072517;28;20123;-54
2022/08/14 14:51:45;;;;;;;1.65;1.35;;;;;;;34.19;19.29;99094.56;5072542;28;20048;-57
2022/08/14 14:54:11;;;;;;;2.20;1.20;;;;;;;33.99;18.97;99090.13;5072673;28;20032;-57
2022/08/14 14:56:40;;;;;;;1.73;1.25;;;;;;;33.90;19.63;99092.22;5072548;28;20128;-53
2022/08/14 14:59:06;;;;;;;2.40;1.40;;;;;;;33.90;19.46;99098.53;5072148;28;20044;-57
2022/08/14 15:01:34;;;;;;;1.30;1.20;;;;;;;33.78;19.87;99092.28;5072546;28;20029;-55
2022/08/14 15:04:02;;;;;;;1.20;1.10;;;;;;;33.68;20.41;99090.88;5072382;28;20509;-53
2022/08/14 15:06:28;;;;;;;1.85;1.35;;;;;;;33.65;20.35;99092.41;5071472;28;20029;-57
2022/08/14 15:08:54;;;;;;;1.77;1.35;;;;;;;33.50;20.26;99095.13;5086035;28;20478;-54
2022/08/14 15:11:20;;;;;;;1.80;1.40;;;;;;;33.31;19.92;99088.28;5092365;28;20108;-57
2022/08/14 15:13:46;;;;;;;2.45;1.70;;;;;;;33.38;19.35;99091.22;5092357;28;20040;-57
2022/08/14 15:16:12;;;;;;;1.63;1.53;;;;;;;33.26;20.11;99094.09;5092378;28;20501;-55
2022/08/14 15:18:38;;;;;;;3.00;2.20;;;;;;;33.30;20.49;99096.91;5092408;28;20043;-53
2022/08/14 15:21:03;;;;;;;1.50;1.40;;;;;;;33.24;20.32;99088.09;5092034;28;20028;-58
2022/08/14 15:23:29;;;;;;;1.70;1.30;;;;;;;33.13;20.42;99089.78;5092242;28;20550;-59
2022/08/14 15:25:55;;;;;;;1.87;1.50;;;;;;;33.07;20.02;99102.22;5092213;28;20108;-56
2022/08/14 15:28:25;;;;;;;2.23;1.77;;;;;;;32.93;19.02;99100.66;5092292;28;20040;-56
2022/08/14 15:30:52;;;;;;;1.55;1.25;;;;;;;32.82;19.46;99096.72;5090680;28;20036;-54
2022/08/14 15:34:09;;;;;;;1.88;1.52;;;;;;;32.75;18.69;99098.47;5090945;28;20069;-58
2022/08/14 15:36:04;;;;;;;1.67;1.40;;;;;;;32.86;19.38;99099.56;5091944;28;20432;-56
2022/08/14 15:38:30;;;;;;;1.77;1.33;;;;;;;32.59;18.47;99109.41;5092065;28;20040;-55
2022/08/14 15:41:00;;;;;;;2.05;1.83;;;;;;;32.41;18.51;99097.84;5091744;28;20028;-59
2022/08/14 15:43:27;;;;;;;1.80;1.45;;;;;;;32.44;18.58;99102.66;5092096;28;20075;-56
2022/08/14 15:45:53;;;;;;;1.65;1.50;;;;;;;32.38;18.71;99104.03;5091891;28;20050;-52
2022/08/14 15:48:19;;;;;;;3.28;1.70;;;;;;;32.34;17.44;99108.63;5091931;28;20043;-57
2022/08/14 15:50:45;;;;;;;2.07;1.57;;;;;;;32.29;17.71;99108.84;5091557;28;20379;-55
2022/08/14 15:53:11;;;;;;;2.60;1.80;;;;;;;32.21;16.27;99107.00;5091908;28;20036;-55
2022/08/14 15:55:36;;;;;;;1.87;1.47;;;;;;;32.29;17.09;99104.13;5091808;28;20044;-54
2022/08/14 15:58:03;;;;;;;2.10;1.85;;;;;;;32.18;16.93;99107.69;5091932;28;20185;-60
2022/08/14 16:03:20;;;;;;;2.50;1.58;;;;;;;31.98;17.27;99099.19;5090615;28;20473;-53
2022/08/14 16:05:45;;;;;;;2.22;1.40;;;;;;;31.92;18.43;99097.81;5091626;28;20496;-55
2022/08/14 16:08:11;;;;;;;2.33;1.70;;;;;;;31.95;18.08;99101.81;5091640;28;20039;-58
2022/08/14 16:10:39;;;;;;;1.47;1.37;;;;;;;31.76;19.24;99102.34;5090001;28;20407;-54
2022/08/14 16:13:04;;;;;;;1.92;1.67;;;;;;;31.75;18.33;99100.72;5091633;28;20070;-58
2022/08/14 16:15:30;;;;;;;1.65;1.23;;;;;;;31.57;20.54;99103.69;5091625;28;20035;-60
2022/08/14 16:17:56;;;;;;;1.63;1.33;;;;;;;31.59;18.96;99106.09;5091635;28;20189;-57
2022/08/14 16:20:23;;;;;;;2.35;1.40;;;;;;;31.57;19.01;99111.94;5091233;28;20625;-57
2022/08/14 16:22:49;;;;;;;1.63;1.33;;;;;;;31.53;19.51;99104.69;5091608;28;20039;-62